Terminal Aerodrome Forecast
Issued by NWS Upton, NY

Home | Current Version | Previous Version | Text Only | Print | Product List | Glossary On
Versions: 1 2 3 4 5 6 7 8 9 10 11 12 13 14 15 16 17 18 19 20 21 22 23 24 25 26 27
000
FTUS41 KOKX 172300 RRA
TAFJFK
TAF
KJFK 172341Z 1800/1906 29015G21KT P6SM BKN050
     FM180600 29019G27KT P6SM SCT040
      TEMPO 1806/1810 BKN040
     FM182200 30014G20KT P6SM SCT035
     FM190200 31010KT P6SM SCT035=

USA.gov is the U.S. government's official web portal to all federal, state and local government web resources and services.